Wakaw, Canada
Current Conditions -  °F | °C
As of 10:00 PM on Sunday 25 Jan 2015 (Local Time) from CYPA Reporting Station
Clear Clear  
Wind Chill: 31°   Ceiling: Unl
Heat Index: 39°   Visibility: 15mi
Dew Point: 30°   Wind: 15mph
Humidity: 70%   Direction: 290°WNW
Pressure: 29.63"   Gusts: NA
Location:  52.65°N, 105.73°W
Report Text: CYPA 260400Z 29013KT 15SM SKC 04/M01 A2963 RMK SLP053
Loading
Personal Weather Stations






























Interactive Weather Map New forecast layout! Learn more

10-Day Weather Forecast

Advertisements
Track Severe Weather on mobile